sensor_id;sensor_type;location;lat;lon;timestamp;temperature;humidity
2825;DHT22;1420;51.324;12.344;2023-07-20T00:02:05;17.10;99.90
2825;DHT22;1420;51.324;12.344;2023-07-20T00:04:32;17.20;99.90
2825;DHT22;1420;51.324;12.344;2023-07-20T00:06:59;17.20;99.90
2825;DHT22;1420;51.324;12.344;2023-07-20T00:09:27;17.30;99.90
2825;DHT22;1420;51.324;12.344;2023-07-20T00:11:55;16.90;99.90
2825;DHT22;1420;51.324;12.344;2023-07-20T00:14:23;16.60;99.90
2825;DHT22;1420;51.324;12.344;2023-07-20T00:16:51;16.70;99.90
2825;DHT22;1420;51.324;12.344;2023-07-20T00:19:25;16.70;99.90
2825;DHT22;1420;51.324;12.344;2023-07-20T00:21:52;16.70;99.90
2825;DHT22;1420;51.324;12.344;2023-07-20T00:24:19;16.80;99.90
2825;DHT22;1420;51.324;12.344;2023-07-20T00:26:47;16.50;99.90
2825;DHT22;1420;51.324;12.344;2023-07-20T00:29:15;16.50;99.90
2825;DHT22;1420;51.324;12.344;2023-07-20T00:31:43;16.40;99.90
2825;DHT22;1420;51.324;12.344;2023-07-20T00:34:11;16.40;99.90
2825;DHT22;1420;51.324;12.344;2023-07-20T00:36:38;16.30;99.90
2825;DHT22;1420;51.324;12.344;2023-07-20T00:39:05;16.50;99.90
2825;DHT22;1420;51.324;12.344;2023-07-20T00:41:33;16.70;99.90
2825;DHT22;1420;51.324;12.344;2023-07-20T00:44:01;16.90;99.90
2825;DHT22;1420;51.324;12.344;2023-07-20T00:46:29;16.80;99.90
2825;DHT22;1420;51.324;12.344;2023-07-20T00:48:57;16.60;99.90
2825;DHT22;1420;51.324;12.344;2023-07-20T00:51:25;16.90;99.90
2825;DHT22;1420;51.324;12.344;2023-07-20T00:53:53;16.80;99.90
2825;DHT22;1420;51.324;12.344;2023-07-20T00:56:21;16.70;99.90
2825;DHT22;1420;51.324;12.344;2023-07-20T00:58:49;16.60;99.90
2825;DHT22;1420;51.324;12.344;2023-07-20T01:01:16;16.50;99.90
2825;DHT22;1420;51.324;12.344;2023-07-20T01:03:44;16.40;99.90
2825;DHT22;1420;51.324;12.344;2023-07-20T01:06:18;16.40;99.90
2825;DHT22;1420;51.324;12.344;2023-07-20T01:08:51;16.30;99.90
2825;DHT22;1420;51.324;12.344;2023-07-20T01:11:19;16.20;99.90
2825;DHT22;1420;51.324;12.344;2023-07-20T01:13:43;16.20;99.90
2825;DHT22;1420;51.324;12.344;2023-07-20T01:16:11;16.20;99.90
2825;DHT22;1420;51.324;12.344;2023-07-20T01:18:38;16.50;99.90
2825;DHT22;1420;51.324;12.344;2023-07-20T01:21:08;16.20;99.90
2825;DHT22;1420;51.324;12.344;2023-07-20T01:26:37;16.20;99.90
2825;DHT22;1420;51.324;12.344;2023-07-20T01:29:11;16.10;99.90
2825;DHT22;1420;51.324;12.344;2023-07-20T01:31:36;16.00;99.90
2825;DHT22;1420;51.324;12.344;2023-07-20T01:34:03;16.20;99.90
2825;DHT22;1420;51.324;12.344;2023-07-20T01:36:33;16.00;99.90
2825;DHT22;1420;51.324;12.344;2023-07-20T01:38:58;16.20;99.90
2825;DHT22;1420;51.324;12.344;2023-07-20T01:41:25;16.10;99.90
2825;DHT22;1420;51.324;12.344;2023-07-20T01:43:52;16.10;99.90
2825;DHT22;1420;51.324;12.344;2023-07-20T01:46:19;15.90;99.90
2825;DHT22;1420;51.324;12.344;2023-07-20T01:48:47;15.90;99.90
2825;DHT22;1420;51.324;12.344;2023-07-20T01:51:14;15.90;99.90
2825;DHT22;1420;51.324;12.344;2023-07-20T01:53:41;15.80;99.90
2825;DHT22;1420;51.324;12.344;2023-07-20T01:56:08;15.80;99.90
2825;DHT22;1420;51.324;12.344;2023-07-20T01:58:35;16.00;99.90
2825;DHT22;1420;51.324;12.344;2023-07-20T02:01:03;16.00;99.90
2825;DHT22;1420;51.324;12.344;2023-07-20T02:03:31;15.80;99.90
2825;DHT22;1420;51.324;12.344;2023-07-20T02:05:59;15.80;99.90
2825;DHT22;1420;51.324;12.344;2023-07-20T02:08:27;15.80;99.90
2825;DHT22;1420;51.324;12.344;2023-07-20T02:10:55;15.80;99.90
2825;DHT22;1420;51.324;12.344;2023-07-20T02:13:23;15.90;99.90
2825;DHT22;1420;51.324;12.344;2023-07-20T02:15:50;15.80;99.90
2825;DHT22;1420;51.324;12.344;2023-07-20T02:18:17;15.90;99.90
2825;DHT22;1420;51.324;12.344;2023-07-20T02:20:45;15.60;99.90
2825;DHT22;1420;51.324;12.344;2023-07-20T02:23:12;15.60;99.90
2825;DHT22;1420;51.324;12.344;2023-07-20T02:25:40;15.70;99.90
2825;DHT22;1420;51.324;12.344;2023-07-20T02:28:07;15.90;99.90
2825;DHT22;1420;51.324;12.344;2023-07-20T02:30:34;15.80;99.90
2825;DHT22;1420;51.324;12.344;2023-07-20T02:33:01;16.10;99.90
2825;DHT22;1420;51.324;12.344;2023-07-20T02:35:28;16.00;99.90
2825;DHT22;1420;51.324;12.344;2023-07-20T02:37:56;15.80;99.90
2825;DHT22;1420;51.324;12.344;2023-07-20T02:40:23;15.80;99.90
2825;DHT22;1420;51.324;12.344;2023-07-20T02:42:50;15.90;99.90
2825;DHT22;1420;51.324;12.344;2023-07-20T02:45:18;15.90;99.90
2825;DHT22;1420;51.324;12.344;2023-07-20T02:47:45;15.90;99.90
2825;DHT22;1420;51.324;12.344;2023-07-20T02:50:13;16.00;99.90
2825;DHT22;1420;51.324;12.344;2023-07-20T02:52:41;16.10;99.90
2825;DHT22;1420;51.324;12.344;2023-07-20T02:55:08;16.00;99.90
2825;DHT22;1420;51.324;12.344;2023-07-20T02:57:35;16.10;99.90
2825;DHT22;1420;51.324;12.344;2023-07-20T03:00:04;15.90;99.90
2825;DHT22;1420;51.324;12.344;2023-07-20T03:02:31;15.90;99.90
2825;DHT22;1420;51.324;12.344;2023-07-20T03:04:58;16.00;99.90
2825;DHT22;1420;51.324;12.344;2023-07-20T03:07:27;16.00;99.90
2825;DHT22;1420;51.324;12.344;2023-07-20T03:09:54;16.10;99.90
2825;DHT22;1420;51.324;12.344;2023-07-20T03:12:21;16.20;99.90
2825;DHT22;1420;51.324;12.344;2023-07-20T03:14:49;16.20;99.90
2825;DHT22;1420;51.324;12.344;2023-07-20T03:17:17;16.20;99.90
2825;DHT22;1420;51.324;12.344;2023-07-20T03:19:45;16.20;99.90
2825;DHT22;1420;51.324;12.344;2023-07-20T03:22:13;16.70;99.90
2825;DHT22;1420;51.324;12.344;2023-07-20T03:24:41;16.70;99.90
2825;DHT22;1420;51.324;12.344;2023-07-20T03:27:08;16.70;99.90
2825;DHT22;1420;51.324;12.344;2023-07-20T03:29:35;16.50;99.90
2825;DHT22;1420;51.324;12.344;2023-07-20T03:32:04;16.40;99.90
2825;DHT22;1420;51.324;12.344;2023-07-20T03:34:31;16.30;99.90
2825;DHT22;1420;51.324;12.344;2023-07-20T03:36:58;16.50;99.90
2825;DHT22;1420;51.324;12.344;2023-07-20T03:39:25;16.50;99.90
2825;DHT22;1420;51.324;12.344;2023-07-20T03:41:52;16.40;99.90
2825;DHT22;1420;51.324;12.344;2023-07-20T03:44:20;16.70;99.90
2825;DHT22;1420;51.324;12.344;2023-07-20T03:46:47;16.50;99.90
2825;DHT22;1420;51.324;12.344;2023-07-20T03:49:14;16.50;99.90
2825;DHT22;1420;51.324;12.344;2023-07-20T03:51:41;16.40;99.90
2825;DHT22;1420;51.324;12.344;2023-07-20T03:54:09;16.70;99.90
2825;DHT22;1420;51.324;12.344;2023-07-20T03:56:37;16.40;99.90
2825;DHT22;1420;51.324;12.344;2023-07-20T03:59:05;16.40;99.90
2825;DHT22;1420;51.324;12.344;2023-07-20T04:01:33;16.40;99.90
2825;DHT22;1420;51.324;12.344;2023-07-20T04:04:00;16.40;99.90
2825;DHT22;1420;51.324;12.344;2023-07-20T04:06:28;16.60;99.90
2825;DHT22;1420;51.324;12.344;2023-07-20T04:08:55;16.80;99.90
2825;DHT22;1420;51.324;12.344;2023-07-20T04:11:22;16.70;99.90
2825;DHT22;1420;51.324;12.344;2023-07-20T04:13:50;16.60;99.90
2825;DHT22;1420;51.324;12.344;2023-07-20T04:16:17;16.50;99.90
2825;DHT22;1420;51.324;12.344;2023-07-20T04:18:44;16.40;99.90
2825;DHT22;1420;51.324;12.344;2023-07-20T04:21:12;16.30;99.90
2825;DHT22;1420;51.324;12.344;2023-07-20T04:23:40;16.40;99.90
2825;DHT22;1420;51.324;12.344;2023-07-20T04:26:08;16.30;99.90
2825;DHT22;1420;51.324;12.344;2023-07-20T04:28:36;16.30;99.90
2825;DHT22;1420;51.324;12.344;2023-07-20T04:31:11;16.30;99.90
2825;DHT22;1420;51.324;12.344;2023-07-20T04:33:38;16.30;99.90
2825;DHT22;1420;51.324;12.344;2023-07-20T04:36:05;16.50;99.90
2825;DHT22;1420;51.324;12.344;2023-07-20T04:38:32;16.60;99.90
2825;DHT22;1420;51.324;12.344;2023-07-20T04:40:59;16.60;99.90
2825;DHT22;1420;51.324;12.344;2023-07-20T04:43:26;16.30;99.90
2825;DHT22;1420;51.324;12.344;2023-07-20T04:45:54;16.70;99.90
2825;DHT22;1420;51.324;12.344;2023-07-20T04:48:21;16.80;99.90
2825;DHT22;1420;51.324;12.344;2023-07-20T04:50:48;16.60;99.90
2825;DHT22;1420;51.324;12.344;2023-07-20T04:53:15;16.60;99.90
2825;DHT22;1420;51.324;12.344;2023-07-20T04:55:47;16.70;99.90
2825;DHT22;1420;51.324;12.344;2023-07-20T04:58:10;16.90;99.90
2825;DHT22;1420;51.324;12.344;2023-07-20T05:00:37;16.90;99.90
2825;DHT22;1420;51.324;12.344;2023-07-20T05:03:04;16.80;99.90
2825;DHT22;1420;51.324;12.344;2023-07-20T05:05:33;16.60;99.90
2825;DHT22;1420;51.324;12.344;2023-07-20T05:08:00;16.60;99.90
2825;DHT22;1420;51.324;12.344;2023-07-20T05:10:27;16.70;99.90
2825;DHT22;1420;51.324;12.344;2023-07-20T05:12:55;16.70;99.90
2825;DHT22;1420;51.324;12.344;2023-07-20T05:15:22;16.80;99.90
2825;DHT22;1420;51.324;12.344;2023-07-20T05:17:49;16.90;99.90
2825;DHT22;1420;51.324;12.344;2023-07-20T05:20:16;17.30;99.90
2825;DHT22;1420;51.324;12.344;2023-07-20T05:22:43;17.20;99.90
2825;DHT22;1420;51.324;12.344;2023-07-20T05:25:11;17.10;99.90
2825;DHT22;1420;51.324;12.344;2023-07-20T05:27:39;17.10;99.90
2825;DHT22;1420;51.324;12.344;2023-07-20T05:30:08;17.00;99.90
2825;DHT22;1420;51.324;12.344;2023-07-20T05:32:35;17.00;99.90
2825;DHT22;1420;51.324;12.344;2023-07-20T05:35:02;17.10;99.90
2825;DHT22;1420;51.324;12.344;2023-07-20T05:37:29;17.10;99.90
2825;DHT22;1420;51.324;12.344;2023-07-20T05:39:57;17.10;99.90
2825;DHT22;1420;51.324;12.344;2023-07-20T05:42:24;17.20;99.90
2825;DHT22;1420;51.324;12.344;2023-07-20T05:44:51;17.10;99.90
2825;DHT22;1420;51.324;12.344;2023-07-20T05:47:18;17.20;99.90
2825;DHT22;1420;51.324;12.344;2023-07-20T05:49:45;17.30;99.90
2825;DHT22;1420;51.324;12.344;2023-07-20T05:52:13;17.30;99.90
2825;DHT22;1420;51.324;12.344;2023-07-20T05:54:41;17.40;99.90
2825;DHT22;1420;51.324;12.344;2023-07-20T05:57:09;17.70;99.90
2825;DHT22;1420;51.324;12.344;2023-07-20T05:59:37;18.40;99.90
2825;DHT22;1420;51.324;12.344;2023-07-20T06:02:06;19.20;99.90
2825;DHT22;1420;51.324;12.344;2023-07-20T06:04:33;19.10;99.90
2825;DHT22;1420;51.324;12.344;2023-07-20T06:07:01;18.90;99.90
2825;DHT22;1420;51.324;12.344;2023-07-20T06:09:29;18.90;99.90
2825;DHT22;1420;51.324;12.344;2023-07-20T06:11:57;18.70;99.90
2825;DHT22;1420;51.324;12.344;2023-07-20T06:14:25;18.50;99.90
2825;DHT22;1420;51.324;12.344;2023-07-20T06:16:52;18.40;99.90
2825;DHT22;1420;51.324;12.344;2023-07-20T06:19:19;18.40;99.90
2825;DHT22;1420;51.324;12.344;2023-07-20T06:21:46;18.50;99.90
2825;DHT22;1420;51.324;12.344;2023-07-20T06:24:13;18.30;99.90
2825;DHT22;1420;51.324;12.344;2023-07-20T06:26:41;18.10;99.90
2825;DHT22;1420;51.324;12.344;2023-07-20T06:29:08;18.00;99.90
2825;DHT22;1420;51.324;12.344;2023-07-20T06:31:36;18.70;99.90
2825;DHT22;1420;51.324;12.344;2023-07-20T06:34:04;19.70;99.90
2825;DHT22;1420;51.324;12.344;2023-07-20T06:36:32;20.40;99.90
2825;DHT22;1420;51.324;12.344;2023-07-20T06:39:00;21.30;99.90
2825;DHT22;1420;51.324;12.344;2023-07-20T06:41:28;22.00;99.90
2825;DHT22;1420;51.324;12.344;2023-07-20T06:43:55;21.90;99.90
2825;DHT22;1420;51.324;12.344;2023-07-20T06:46:22;22.60;99.90
2825;DHT22;1420;51.324;12.344;2023-07-20T06:48:49;22.10;99.90
2825;DHT22;1420;51.324;12.344;2023-07-20T06:51:17;20.90;99.90
2825;DHT22;1420;51.324;12.344;2023-07-20T06:53:45;20.70;99.90
2825;DHT22;1420;51.324;12.344;2023-07-20T06:56:13;20.70;99.90
2825;DHT22;1420;51.324;12.344;2023-07-20T06:58:40;20.80;99.90
2825;DHT22;1420;51.324;12.344;2023-07-20T07:01:07;21.10;99.90
2825;DHT22;1420;51.324;12.344;2023-07-20T07:03:35;20.00;99.90
2825;DHT22;1420;51.324;12.344;2023-07-20T07:06:03;19.90;99.90
2825;DHT22;1420;51.324;12.344;2023-07-20T07:08:30;19.90;99.90
2825;DHT22;1420;51.324;12.344;2023-07-20T07:10:57;19.90;99.90
2825;DHT22;1420;51.324;12.344;2023-07-20T07:13:25;19.70;99.90
2825;DHT22;1420;51.324;12.344;2023-07-20T07:15:52;19.40;99.90
2825;DHT22;1420;51.324;12.344;2023-07-20T07:18:20;19.30;99.90
2825;DHT22;1420;51.324;12.344;2023-07-20T07:20:52;19.20;99.90
2825;DHT22;1420;51.324;12.344;2023-07-20T07:23:18;19.40;99.90
2825;DHT22;1420;51.324;12.344;2023-07-20T07:25:46;19.40;99.90
2825;DHT22;1420;51.324;12.344;2023-07-20T07:28:13;19.40;99.90
2825;DHT22;1420;51.324;12.344;2023-07-20T07:30:40;19.60;99.90
2825;DHT22;1420;51.324;12.344;2023-07-20T07:33:08;19.10;99.90
2825;DHT22;1420;51.324;12.344;2023-07-20T07:35:35;19.00;99.90
2825;DHT22;1420;51.324;12.344;2023-07-20T07:38:02;19.10;99.90
2825;DHT22;1420;51.324;12.344;2023-07-20T07:40:30;19.00;99.90
2825;DHT22;1420;51.324;12.344;2023-07-20T07:42:57;18.90;99.90
2825;DHT22;1420;51.324;12.344;2023-07-20T07:45:25;19.00;99.90
2825;DHT22;1420;51.324;12.344;2023-07-20T07:47:52;18.90;99.90
2825;DHT22;1420;51.324;12.344;2023-07-20T07:50:20;18.90;99.90
2825;DHT22;1420;51.324;12.344;2023-07-20T07:52:48;19.30;99.90
2825;DHT22;1420;51.324;12.344;2023-07-20T07:55:16;19.40;99.90
2825;DHT22;1420;51.324;12.344;2023-07-20T07:57:43;19.40;99.90
2825;DHT22;1420;51.324;12.344;2023-07-20T08:00:11;19.30;99.90
2825;DHT22;1420;51.324;12.344;2023-07-20T08:02:38;19.40;99.90
2825;DHT22;1420;51.324;12.344;2023-07-20T08:05:05;19.40;99.90
2825;DHT22;1420;51.324;12.344;2023-07-20T08:07:33;19.30;99.90
2825;DHT22;1420;51.324;12.344;2023-07-20T08:10:01;19.20;99.90
2825;DHT22;1420;51.324;12.344;2023-07-20T08:12:28;19.10;99.90
2825;DHT22;1420;51.324;12.344;2023-07-20T08:14:55;19.30;99.90
2825;DHT22;1420;51.324;12.344;2023-07-20T08:17:22;19.50;99.90
2825;DHT22;1420;51.324;12.344;2023-07-20T08:19:50;19.60;99.90
2825;DHT22;1420;51.324;12.344;2023-07-20T08:22:18;19.40;99.90
2825;DHT22;1420;51.324;12.344;2023-07-20T08:24:45;19.40;99.90
2825;DHT22;1420;51.324;12.344;2023-07-20T08:27:13;19.60;99.90
2825;DHT22;1420;51.324;12.344;2023-07-20T08:29:40;20.00;99.90
2825;DHT22;1420;51.324;12.344;2023-07-20T08:32:08;20.40;99.90
2825;DHT22;1420;51.324;12.344;2023-07-20T08:34:35;20.40;99.90
2825;DHT22;1420;51.324;12.344;2023-07-20T08:37:02;20.50;99.90
2825;DHT22;1420;51.324;12.344;2023-07-20T08:39:30;20.40;99.90
2825;DHT22;1420;51.324;12.344;2023-07-20T08:41:58;20.40;99.90
2825;DHT22;1420;51.324;12.344;2023-07-20T08:44:24;19.90;99.90
2825;DHT22;1420;51.324;12.344;2023-07-20T08:46:51;20.10;99.90
2825;DHT22;1420;51.324;12.344;2023-07-20T08:49:18;21.30;99.90
2825;DHT22;1420;51.324;12.344;2023-07-20T08:51:46;21.60;99.90
2825;DHT22;1420;51.324;12.344;2023-07-20T08:54:13;21.90;99.90
2825;DHT22;1420;51.324;12.344;2023-07-20T08:56:41;22.90;99.90
2825;DHT22;1420;51.324;12.344;2023-07-20T08:59:09;23.00;97.60
2825;DHT22;1420;51.324;12.344;2023-07-20T09:01:36;22.90;97.90
2825;DHT22;1420;51.324;12.344;2023-07-20T09:04:03;22.90;97.70
2825;DHT22;1420;51.324;12.344;2023-07-20T09:06:31;23.00;96.90
2825;DHT22;1420;51.324;12.344;2023-07-20T09:08:58;23.30;99.30
2825;DHT22;1420;51.324;12.344;2023-07-20T09:11:25;23.90;94.00
2825;DHT22;1420;51.324;12.344;2023-07-20T09:14:08;23.80;90.90
2825;DHT22;1420;51.324;12.344;2023-07-20T09:16:51;23.20;91.60
2825;DHT22;1420;51.324;12.344;2023-07-20T09:19:17;22.70;91.50
2825;DHT22;1420;51.324;12.344;2023-07-20T09:21:46;21.60;97.90
2825;DHT22;1420;51.324;12.344;2023-07-20T09:24:13;21.60;98.20
2825;DHT22;1420;51.324;12.344;2023-07-20T09:26:41;21.60;99.70
2825;DHT22;1420;51.324;12.344;2023-07-20T09:29:08;21.60;99.90
2825;DHT22;1420;51.324;12.344;2023-07-20T09:31:35;21.60;99.90
2825;DHT22;1420;51.324;12.344;2023-07-20T09:34:03;21.70;99.90
2825;DHT22;1420;51.324;12.344;2023-07-20T09:36:32;21.40;99.90
2825;DHT22;1420;51.324;12.344;2023-07-20T09:38:58;21.20;99.90
2825;DHT22;1420;51.324;12.344;2023-07-20T09:41:26;21.10;99.90
2825;DHT22;1420;51.324;12.344;2023-07-20T09:43:53;21.10;99.90
2825;DHT22;1420;51.324;12.344;2023-07-20T09:46:20;21.00;99.90
2825;DHT22;1420;51.324;12.344;2023-07-20T09:48:53;20.70;99.90
2825;DHT22;1420;51.324;12.344;2023-07-20T09:51:22;20.00;99.90
2825;DHT22;1420;51.324;12.344;2023-07-20T09:53:49;19.20;99.90
2825;DHT22;1420;51.324;12.344;2023-07-20T09:56:16;18.10;99.90
2825;DHT22;1420;51.324;12.344;2023-07-20T09:58:44;17.40;99.90
2825;DHT22;1420;51.324;12.344;2023-07-20T10:01:10;17.40;99.90
2825;DHT22;1420;51.324;12.344;2023-07-20T10:03:37;17.40;99.90
2825;DHT22;1420;51.324;12.344;2023-07-20T10:06:06;17.50;99.90
2825;DHT22;1420;51.324;12.344;2023-07-20T10:08:33;17.40;99.90
2825;DHT22;1420;51.324;12.344;2023-07-20T10:11:00;17.30;99.90
2825;DHT22;1420;51.324;12.344;2023-07-20T10:13:27;17.70;99.90
2825;DHT22;1420;51.324;12.344;2023-07-20T10:15:56;17.90;99.90
2825;DHT22;1420;51.324;12.344;2023-07-20T10:18:25;18.10;99.90
2825;DHT22;1420;51.324;12.344;2023-07-20T10:20:50;18.20;99.90
2825;DHT22;1420;51.324;12.344;2023-07-20T10:23:17;18.20;99.90
2825;DHT22;1420;51.324;12.344;2023-07-20T10:25:44;18.30;99.90
2825;DHT22;1420;51.324;12.344;2023-07-20T10:28:11;18.10;99.90
2825;DHT22;1420;51.324;12.344;2023-07-20T10:30:38;18.00;99.90
2825;DHT22;1420;51.324;12.344;2023-07-20T10:33:06;17.70;99.90
2825;DHT22;1420;51.324;12.344;2023-07-20T10:35:54;17.60;99.90
2825;DHT22;1420;51.324;12.344;2023-07-20T10:41:00;17.10;99.90
2825;DHT22;1420;51.324;12.344;2023-07-20T10:43:28;17.50;99.90
2825;DHT22;1420;51.324;12.344;2023-07-20T10:45:55;17.60;99.90
2825;DHT22;1420;51.324;12.344;2023-07-20T10:48:24;17.90;99.90
2825;DHT22;1420;51.324;12.344;2023-07-20T10:53:31;18.50;99.90
2825;DHT22;1420;51.324;12.344;2023-07-20T10:56:13;18.60;99.90
2825;DHT22;1420;51.324;12.344;2023-07-20T10:58:41;18.60;99.90
2825;DHT22;1420;51.324;12.344;2023-07-20T11:01:09;18.70;99.90
2825;DHT22;1420;51.324;12.344;2023-07-20T11:03:37;18.80;99.90
2825;DHT22;1420;51.324;12.344;2023-07-20T11:08:43;18.60;99.90
2825;DHT22;1420;51.324;12.344;2023-07-20T11:11:21;18.80;99.90
2825;DHT22;1420;51.324;12.344;2023-07-20T11:13:55;18.70;99.90
2825;DHT22;1420;51.324;12.344;2023-07-20T11:16:31;18.60;99.90
2825;DHT22;1420;51.324;12.344;2023-07-20T11:18:49;19.00;99.90
2825;DHT22;1420;51.324;12.344;2023-07-20T11:21:16;19.20;99.90
2825;DHT22;1420;51.324;12.344;2023-07-20T11:23:44;19.10;99.90
2825;DHT22;1420;51.324;12.344;2023-07-20T11:26:12;19.20;99.90
2825;DHT22;1420;51.324;12.344;2023-07-20T11:28:40;19.10;99.90
2825;DHT22;1420;51.324;12.344;2023-07-20T11:31:08;18.90;99.90
2825;DHT22;1420;51.324;12.344;2023-07-20T11:33:36;19.20;99.90
2825;DHT22;1420;51.324;12.344;2023-07-20T11:36:03;19.10;99.90
2825;DHT22;1420;51.324;12.344;2023-07-20T11:38:30;19.40;99.90
2825;DHT22;1420;51.324;12.344;2023-07-20T11:40:58;19.10;99.90
2825;DHT22;1420;51.324;12.344;2023-07-20T11:43:25;19.10;99.90
2825;DHT22;1420;51.324;12.344;2023-07-20T11:45:52;18.90;99.90
2825;DHT22;1420;51.324;12.344;2023-07-20T11:48:19;19.20;99.90
2825;DHT22;1420;51.324;12.344;2023-07-20T11:50:46;19.10;99.90
2825;DHT22;1420;51.324;12.344;2023-07-20T11:53:14;19.50;99.90
2825;DHT22;1420;51.324;12.344;2023-07-20T11:55:41;19.20;99.90
2825;DHT22;1420;51.324;12.344;2023-07-20T11:58:09;19.30;99.90
2825;DHT22;1420;51.324;12.344;2023-07-20T12:00:36;19.40;99.90
2825;DHT22;1420;51.324;12.344;2023-07-20T12:03:04;19.30;99.90
2825;DHT22;1420;51.324;12.344;2023-07-20T12:05:30;19.50;99.90
2825;DHT22;1420;51.324;12.344;2023-07-20T12:07:58;19.00;99.90
2825;DHT22;1420;51.324;12.344;2023-07-20T12:10:26;19.10;99.90
2825;DHT22;1420;51.324;12.344;2023-07-20T12:12:54;19.30;99.90
2825;DHT22;1420;51.324;12.344;2023-07-20T12:15:23;19.10;99.90
2825;DHT22;1420;51.324;12.344;2023-07-20T12:17:51;19.00;99.90
2825;DHT22;1420;51.324;12.344;2023-07-20T12:20:24;19.20;99.90
2825;DHT22;1420;51.324;12.344;2023-07-20T12:22:52;19.60;99.90
2825;DHT22;1420;51.324;12.344;2023-07-20T12:25:20;19.80;99.90
2825;DHT22;1420;51.324;12.344;2023-07-20T12:27:48;19.90;99.90
2825;DHT22;1420;51.324;12.344;2023-07-20T12:30:16;19.80;99.90
2825;DHT22;1420;51.324;12.344;2023-07-20T12:32:44;20.20;99.90
2825;DHT22;1420;51.324;12.344;2023-07-20T12:35:12;20.40;99.90
2825;DHT22;1420;51.324;12.344;2023-07-20T12:37:40;20.30;99.90
2825;DHT22;1420;51.324;12.344;2023-07-20T12:40:07;20.30;99.90
2825;DHT22;1420;51.324;12.344;2023-07-20T12:42:35;20.70;99.90
2825;DHT22;1420;51.324;12.344;2023-07-20T12:45:02;20.70;99.90
2825;DHT22;1420;51.324;12.344;2023-07-20T12:47:29;20.60;99.90
2825;DHT22;1420;51.324;12.344;2023-07-20T12:49:56;20.50;99.90
2825;DHT22;1420;51.324;12.344;2023-07-20T12:52:24;20.70;99.90
2825;DHT22;1420;51.324;12.344;2023-07-20T12:54:52;20.10;99.90
2825;DHT22;1420;51.324;12.344;2023-07-20T12:57:20;20.40;99.90
2825;DHT22;1420;51.324;12.344;2023-07-20T12:59:47;20.30;99.90
2825;DHT22;1420;51.324;12.344;2023-07-20T13:02:14;20.80;99.90
2825;DHT22;1420;51.324;12.344;2023-07-20T13:04:41;20.80;99.90
2825;DHT22;1420;51.324;12.344;2023-07-20T13:07:10;20.90;99.90
2825;DHT22;1420;51.324;12.344;2023-07-20T13:09:37;20.60;99.90
2825;DHT22;1420;51.324;12.344;2023-07-20T13:12:05;20.50;99.90
2825;DHT22;1420;51.324;12.344;2023-07-20T13:14:32;20.30;99.90
2825;DHT22;1420;51.324;12.344;2023-07-20T13:16:59;20.50;99.90
2825;DHT22;1420;51.324;12.344;2023-07-20T13:19:27;20.60;99.90
2825;DHT22;1420;51.324;12.344;2023-07-20T13:21:55;20.60;99.90
2825;DHT22;1420;51.324;12.344;2023-07-20T13:24:22;20.60;99.90
2825;DHT22;1420;51.324;12.344;2023-07-20T13:26:50;21.00;99.90
2825;DHT22;1420;51.324;12.344;2023-07-20T13:29:17;20.80;99.90
2825;DHT22;1420;51.324;12.344;2023-07-20T13:31:45;21.50;99.90
2825;DHT22;1420;51.324;12.344;2023-07-20T13:34:12;21.40;99.90
2825;DHT22;1420;51.324;12.344;2023-07-20T13:36:39;21.20;99.90
2825;DHT22;1420;51.324;12.344;2023-07-20T13:39:06;21.20;99.90
2825;DHT22;1420;51.324;12.344;2023-07-20T13:41:34;21.10;99.90
2825;DHT22;1420;51.324;12.344;2023-07-20T13:44:02;21.40;99.90
2825;DHT22;1420;51.324;12.344;2023-07-20T13:46:30;21.30;99.90
2825;DHT22;1420;51.324;12.344;2023-07-20T13:48:57;21.10;99.90
2825;DHT22;1420;51.324;12.344;2023-07-20T13:51:24;21.10;99.90
2825;DHT22;1420;51.324;12.344;2023-07-20T13:53:51;21.20;99.90
2825;DHT22;1420;51.324;12.344;2023-07-20T13:56:19;21.50;99.90
2825;DHT22;1420;51.324;12.344;2023-07-20T13:58:46;21.40;99.90
2825;DHT22;1420;51.324;12.344;2023-07-20T14:01:14;21.40;99.90
2825;DHT22;1420;51.324;12.344;2023-07-20T14:03:42;21.40;99.80
2825;DHT22;1420;51.324;12.344;2023-07-20T14:06:09;21.40;97.90
2825;DHT22;1420;51.324;12.344;2023-07-20T14:08:36;21.50;91.30
2825;DHT22;1420;51.324;12.344;2023-07-20T14:11:04;21.80;95.80
2825;DHT22;1420;51.324;12.344;2023-07-20T14:13:32;21.80;89.60
2825;DHT22;1420;51.324;12.344;2023-07-20T14:15:59;21.80;89.80
2825;DHT22;1420;51.324;12.344;2023-07-20T14:18:26;21.70;91.60
2825;DHT22;1420;51.324;12.344;2023-07-20T14:20:54;21.70;92.10
2825;DHT22;1420;51.324;12.344;2023-07-20T14:23:22;21.90;82.90
2825;DHT22;1420;51.324;12.344;2023-07-20T14:25:49;21.80;82.40
2825;DHT22;1420;51.324;12.344;2023-07-20T14:28:16;21.80;80.20
2825;DHT22;1420;51.324;12.344;2023-07-20T14:30:43;21.80;80.20
2825;DHT22;1420;51.324;12.344;2023-07-20T14:33:11;21.80;82.40
2825;DHT22;1420;51.324;12.344;2023-07-20T14:35:40;22.00;80.20
2825;DHT22;1420;51.324;12.344;2023-07-20T14:38:08;22.10;78.40
2825;DHT22;1420;51.324;12.344;2023-07-20T14:40:35;22.00;78.40
2825;DHT22;1420;51.324;12.344;2023-07-20T14:43:02;22.40;81.30
2825;DHT22;1420;51.324;12.344;2023-07-20T14:45:31;22.00;76.20
2825;DHT22;1420;51.324;12.344;2023-07-20T14:47:58;22.00;77.60
2825;DHT22;1420;51.324;12.344;2023-07-20T14:50:26;22.00;76.70
2825;DHT22;1420;51.324;12.344;2023-07-20T14:52:53;21.90;77.00
2825;DHT22;1420;51.324;12.344;2023-07-20T14:55:20;21.90;72.40
2825;DHT22;1420;51.324;12.344;2023-07-20T14:57:48;21.80;70.00
2825;DHT22;1420;51.324;12.344;2023-07-20T15:00:16;22.00;70.80
2825;DHT22;1420;51.324;12.344;2023-07-20T15:02:43;21.90;72.00
2825;DHT22;1420;51.324;12.344;2023-07-20T15:05:11;21.80;68.90
2825;DHT22;1420;51.324;12.344;2023-07-20T15:07:39;21.60;69.20
2825;DHT22;1420;51.324;12.344;2023-07-20T15:10:06;21.70;69.30
2825;DHT22;1420;51.324;12.344;2023-07-20T15:12:34;21.80;72.60
2825;DHT22;1420;51.324;12.344;2023-07-20T15:15:04;22.10;75.80
2825;DHT22;1420;51.324;12.344;2023-07-20T15:17:31;22.10;69.90
2825;DHT22;1420;51.324;12.344;2023-07-20T15:19:58;21.90;69.30
2825;DHT22;1420;51.324;12.344;2023-07-20T15:22:25;21.70;67.50
2825;DHT22;1420;51.324;12.344;2023-07-20T15:24:53;21.90;62.30
2825;DHT22;1420;51.324;12.344;2023-07-20T15:27:20;21.80;62.00
2825;DHT22;1420;51.324;12.344;2023-07-20T15:29:49;21.80;58.40
2825;DHT22;1420;51.324;12.344;2023-07-20T15:32:17;21.80;61.60
2825;DHT22;1420;51.324;12.344;2023-07-20T15:34:44;21.60;57.10
2825;DHT22;1420;51.324;12.344;2023-07-20T15:37:11;21.60;57.00
2825;DHT22;1420;51.324;12.344;2023-07-20T15:39:38;21.70;54.80
2825;DHT22;1420;51.324;12.344;2023-07-20T15:42:06;21.80;54.20
2825;DHT22;1420;51.324;12.344;2023-07-20T15:44:34;22.00;54.00
2825;DHT22;1420;51.324;12.344;2023-07-20T15:47:01;22.00;54.00
2825;DHT22;1420;51.324;12.344;2023-07-20T15:49:29;22.10;55.90
2825;DHT22;1420;51.324;12.344;2023-07-20T15:51:57;22.20;50.50
2825;DHT22;1420;51.324;12.344;2023-07-20T15:54:24;22.20;50.50
2825;DHT22;1420;51.324;12.344;2023-07-20T15:56:51;22.30;56.70
2825;DHT22;1420;51.324;12.344;2023-07-20T15:59:19;22.20;52.10